Time;durP1;ratioP1;P1;durP2;ratioP2;P2;SDS_P1;SDS_P2;PMS_P1;PMS_P2;Temp;Humidity;BMP_temperature;BMP_pressure;BME280_temperature;BME280_humidity;BME280_pressure;Samples;Min_cycle;Max_cycle;Signal;HPM_P1;HPM_P2
2023/12/10 00:02:12;;;;;;;37.40;19.48;;;;;;;5.03;98.40;100247.66;5113888;28;20436;-72
2023/12/10 00:04:39;;;;;;;33.38;16.70;;;;;;;4.55;100.00;100239.78;5113473;28;20023;-71
2023/12/10 00:07:05;;;;;;;33.13;17.08;;;;;;;4.77;100.00;100238.19;5112363;28;20043;-71
2023/12/10 00:09:30;;;;;;;35.75;18.42;;;;;;;4.86;98.93;100212.28;5113196;28;20386;-71
2023/12/10 00:11:56;;;;;;;36.03;16.95;;;;;;;4.96;97.83;100220.88;5112810;28;20101;-71
2023/12/10 00:14:21;;;;;;;36.95;18.83;;;;;;;5.11;97.16;100235.13;5094439;28;20047;-71
2023/12/10 00:16:46;;;;;;;33.58;16.30;;;;;;;4.95;98.00;100238.72;5094445;28;20027;-71
2023/12/10 00:19:12;;;;;;;29.38;16.48;;;;;;;5.19;96.08;100237.72;5113357;28;20495;-71
2023/12/10 00:21:38;;;;;;;35.65;17.73;;;;;;;4.75;96.61;100220.69;5112617;28;20538;-71
2023/12/10 00:24:04;;;;;;;32.80;15.93;;;;;;;4.50;99.32;100234.13;5111148;28;20137;-71
2023/12/10 00:26:30;;;;;;;31.73;16.55;;;;;;;4.80;99.53;100236.97;5112456;28;20067;-71
2023/12/10 00:28:55;;;;;;;31.92;16.88;;;;;;;4.93;97.27;100234.56;5111238;28;20358;-71
2023/12/10 00:31:21;;;;;;;33.50;17.42;;;;;;;5.01;97.49;100247.03;5112190;28;20035;-71
2023/12/10 00:33:47;;;;;;;34.42;17.52;;;;;;;5.14;96.43;100245.44;5093976;28;20607;-71
2023/12/10 00:36:12;;;;;;;32.13;16.05;;;;;;;4.93;95.61;100230.09;5111496;28;20054;-71
2023/12/10 00:38:38;;;;;;;27.85;13.45;;;;;;;4.62;97.70;100235.41;5112534;28;20156;-71
2023/12/10 00:41:05;;;;;;;31.70;15.07;;;;;;;4.79;97.67;100246.00;5113625;28;20032;-71
2023/12/10 00:43:30;;;;;;;30.98;15.60;;;;;;;4.92;97.47;100248.91;5111787;28;20389;-71
2023/12/10 00:45:57;;;;;;;25.27;13.95;;;;;;;5.05;96.20;100235.81;5094453;28;20114;-71
2023/12/10 00:48:23;;;;;;;30.55;16.65;;;;;;;4.99;96.66;100243.69;5094755;28;20114;-71
2023/12/10 00:50:48;;;;;;;30.25;15.35;;;;;;;4.94;97.29;100249.56;5110749;28;20135;-71
2023/12/10 00:53:14;;;;;;;30.85;16.65;;;;;;;5.23;94.92;100251.56;5112718;28;20497;-71
2023/12/10 00:55:40;;;;;;;31.88;16.92;;;;;;;4.86;95.53;100241.59;5111752;28;20030;-71
2023/12/10 00:58:05;;;;;;;30.00;15.55;;;;;;;4.68;97.90;100249.88;5111504;28;20027;-72
2023/12/10 01:00:31;;;;;;;34.03;15.35;;;;;;;4.84;97.40;100243.63;5110764;28;20126;-71
2023/12/10 01:02:56;;;;;;;30.75;16.13;;;;;;;5.01;96.33;100247.84;5111811;28;20023;-71
2023/12/10 01:05:23;;;;;;;34.38;16.77;;;;;;;4.96;96.03;100242.22;5111336;28;20055;-71
2023/12/10 01:07:49;;;;;;;32.28;16.73;;;;;;;4.97;96.40;100259.88;5110423;28;20032;-71
2023/12/10 01:10:14;;;;;;;28.13;14.70;;;;;;;5.29;94.28;100256.16;5093468;28;20142;-71
2023/12/10 01:12:40;;;;;;;32.08;15.48;;;;;;;5.12;95.28;100258.09;5110291;28;20110;-71
2023/12/10 01:15:05;;;;;;;31.08;16.35;;;;;;;5.11;95.03;100263.63;5111788;28;20379;-71
2023/12/10 01:17:34;;;;;;;30.20;16.33;;;;;;;5.03;95.87;100261.81;5110468;28;20027;-72
2023/12/10 01:20:00;;;;;;;26.75;14.98;;;;;;;4.80;95.86;100266.28;5093055;28;20035;-71
2023/12/10 01:22:26;;;;;;;34.72;16.88;;;;;;;5.12;94.80;100265.28;5110055;28;20023;-71
2023/12/10 01:24:54;;;;;;;30.42;16.80;;;;;;;5.29;93.38;100258.81;5111610;28;20020;-71
2023/12/10 01:27:20;;;;;;;34.10;16.80;;;;;;;5.17;93.87;100263.75;5110302;28;20023;-72
2023/12/10 01:29:45;;;;;;;32.63;17.63;;;;;;;4.99;94.42;100257.03;5110690;28;20473;-71
2023/12/10 01:32:10;;;;;;;30.92;15.52;;;;;;;4.90;95.38;100266.91;5110664;28;20027;-71
2023/12/10 01:34:37;;;;;;;26.25;12.80;;;;;;;4.48;95.98;100270.78;5110526;28;20189;-72
2023/12/10 01:37:02;;;;;;;34.92;16.80;;;;;;;4.69;96.11;100256.88;5109930;28;20058;-71
2023/12/10 01:39:27;;;;;;;30.85;16.13;;;;;;;4.88;95.51;100268.94;5111126;28;20023;-71
2023/12/10 01:41:53;;;;;;;31.67;15.88;;;;;;;4.58;95.45;100271.41;5110248;28;20066;-71
2023/12/10 01:44:18;;;;;;;33.13;17.00;;;;;;;4.62;96.95;100280.72;5111764;28;20035;-71
2023/12/10 01:46:45;;;;;;;33.90;15.23;;;;;;;4.90;95.29;100270.44;5110164;28;20118;-71
2023/12/10 01:49:11;;;;;;;28.42;14.95;;;;;;;4.92;94.81;100294.22;5112070;28;20036;-71
2023/12/10 01:51:37;;;;;;;33.28;15.50;;;;;;;4.82;95.30;100294.44;5127233;28;20077;-71
2023/12/10 01:54:03;;;;;;;32.03;15.57;;;;;;;4.81;94.83;100302.63;5110100;28;20112;-70
2023/12/10 01:56:30;;;;;;;34.15;16.67;;;;;;;5.06;93.88;100285.47;5110167;28;20466;-70
2023/12/10 01:58:56;;;;;;;31.83;17.05;;;;;;;4.91;93.51;100279.25;5111381;28;20028;-71
2023/12/10 02:01:23;;;;;;;33.03;15.88;;;;;;;4.60;94.56;100266.75;5093082;28;20055;-71
2023/12/10 02:03:49;;;;;;;26.58;14.48;;;;;;;4.65;95.36;100284.88;5109636;28;20482;-71
2023/12/10 02:06:15;;;;;;;31.90;16.25;;;;;;;4.68;95.91;100282.69;5111202;28;20032;-71
2023/12/10 02:08:40;;;;;;;34.38;16.65;;;;;;;4.62;95.80;100280.72;5111258;28;20342;-70
2023/12/10 02:11:06;;;;;;;29.13;15.45;;;;;;;4.61;95.62;100287.06;5109265;28;20036;-71
2023/12/10 02:13:31;;;;;;;29.77;15.75;;;;;;;4.37;96.87;100284.47;5110921;28;20043;-71
2023/12/10 02:15:57;;;;;;;31.40;15.20;;;;;;;4.20;98.41;100273.84;5111075;28;20081;-71
2023/12/10 02:18:22;;;;;;;29.27;14.55;;;;;;;4.19;98.73;100284.69;5109838;28;20067;-71
2023/12/10 02:20:48;;;;;;;30.92;14.82;;;;;;;4.01;98.54;100263.63;5111108;28;20103;-71
2023/12/10 02:23:35;;;;;;;29.35;15.18;;;;;;;4.50;97.52;100257.28;5115026;28;20043;-71
2023/12/10 02:26:01;;;;;;;26.30;14.30;;;;;;;4.86;94.14;100258.44;5113919;28;20028;-71
2023/12/10 02:28:27;;;;;;;26.77;13.63;;;;;;;4.59;94.40;100266.91;5114975;28;20027;-70
2023/12/10 02:30:52;;;;;;;27.60;13.13;;;;;;;4.74;93.79;100256.34;5113280;28;20027;-71
2023/12/10 02:33:18;;;;;;;22.65;12.13;;;;;;;4.66;93.72;100260.69;5114004;28;20047;-71
2023/12/10 02:35:43;;;;;;;23.25;12.68;;;;;;;4.79;93.08;100269.97;5113489;28;20489;-71
2023/12/10 02:38:09;;;;;;;24.27;12.80;;;;;;;4.89;92.18;100268.75;5115263;28;20792;-71
2023/12/10 02:40:34;;;;;;;23.77;12.85;;;;;;;4.98;92.80;100274.88;5112938;28;20081;-71
2023/12/10 02:43:00;;;;;;;16.63;9.60;;;;;;;4.61;92.08;100272.91;5094421;28;20045;-71
2023/12/10 02:45:26;;;;;;;21.25;10.85;;;;;;;4.65;93.65;100266.22;5112087;28;20028;-71
2023/12/10 02:47:51;;;;;;;21.55;12.43;;;;;;;4.28;94.70;100282.84;5111708;28;20023;-71
2023/12/10 02:50:17;;;;;;;22.15;11.77;;;;;;;4.88;93.18;100288.41;5112773;28;20032;-71
2023/12/10 02:52:42;;;;;;;22.95;12.27;;;;;;;4.51;94.07;100278.44;5113771;28;20020;-71
2023/12/10 02:55:10;;;;;;;19.55;11.52;;;;;;;4.43;93.13;100286.44;5114596;28;20039;-71
2023/12/10 02:57:36;;;;;;;22.23;12.00;;;;;;;4.53;93.33;100271.09;5114591;28;20035;-71
2023/12/10 03:00:03;;;;;;;22.42;12.38;;;;;;;4.71;90.38;100229.03;5114887;28;20067;-72
2023/12/10 03:02:28;;;;;;;20.33;10.98;;;;;;;4.52;92.48;100293.41;5114994;28;20081;-71
2023/12/10 03:04:53;;;;;;;18.63;10.98;;;;;;;4.74;92.02;100286.50;5113341;28;20024;-71
2023/12/10 03:07:19;;;;;;;21.55;11.85;;;;;;;5.21;90.66;100287.41;5112257;28;20039;-71
2023/12/10 03:09:45;;;;;;;21.42;11.98;;;;;;;5.08;89.75;100286.13;5112098;28;20432;-71
2023/12/10 03:12:10;;;;;;;19.58;11.88;;;;;;;4.83;90.52;100289.94;5113929;28;20565;-70
2023/12/10 03:14:36;;;;;;;22.20;12.07;;;;;;;4.68;91.73;100285.34;5114266;28;20023;-71
2023/12/10 03:17:01;;;;;;;19.08;10.95;;;;;;;4.74;91.26;100291.84;5114009;28;20461;-71
2023/12/10 03:19:26;;;;;;;18.90;10.35;;;;;;;4.83;91.14;100271.28;5112607;28;20531;-70
2023/12/10 03:21:52;;;;;;;20.80;11.88;;;;;;;4.84;90.71;100255.13;5113340;28;20023;-71
2023/12/10 03:24:17;;;;;;;21.85;12.20;;;;;;;5.05;90.30;100275.00;5114090;28;20033;-70
2023/12/10 03:26:42;;;;;;;16.48;9.27;;;;;;;4.80;91.32;100267.16;5113679;28;20028;-71
2023/12/10 03:29:08;;;;;;;19.33;11.88;;;;;;;4.71;91.61;100277.00;5112217;28;20031;-70
2023/12/10 03:31:33;;;;;;;17.15;10.43;;;;;;;4.64;92.94;100280.56;5113421;27;20085;-71
2023/12/10 03:33:59;;;;;;;19.67;11.32;;;;;;;4.74;91.96;100283.84;5095701;28;20488;-71
2023/12/10 03:36:24;;;;;;;21.85;10.30;;;;;;;4.71;89.90;100289.50;5113821;27;20023;-71
2023/12/10 03:38:49;;;;;;;22.00;10.25;;;;;;;4.63;92.27;100279.69;5113794;28;20040;-71
2023/12/10 03:41:15;;;;;;;20.50;11.27;;;;;;;4.49;93.38;100293.75;5113802;28;20031;-71
2023/12/10 03:43:41;;;;;;;18.52;10.48;;;;;;;4.38;93.48;100294.97;5112889;28;20031;-71
2023/12/10 03:46:07;;;;;;;21.55;10.05;;;;;;;4.51;92.38;100291.75;5113600;28;20088;-71
2023/12/10 03:48:32;;;;;;;18.52;11.52;;;;;;;4.85;91.26;100294.09;5095885;28;20031;-70
2023/12/10 03:50:57;;;;;;;17.95;10.90;;;;;;;4.72;92.20;100278.66;5112447;28;20039;-70
2023/12/10 03:53:23;;;;;;;18.95;10.20;;;;;;;4.86;91.14;100279.75;5078389;28;20035;-70
2023/12/10 03:55:48;;;;;;;18.42;11.23;;;;;;;4.67;90.60;100285.53;5112295;28;20060;-71
2023/12/10 03:58:13;;;;;;;15.82;9.20;;;;;;;3.81;93.39;100215.25;5111587;28;20024;-71
2023/12/10 04:00:39;;;;;;;18.80;10.60;;;;;;;4.44;93.17;100280.13;5095445;28;20049;-70
2023/12/10 04:03:04;;;;;;;15.55;9.52;;;;;;;4.09;94.37;100271.56;5113482;28;20023;-70
2023/12/10 04:05:30;;;;;;;20.27;10.95;;;;;;;4.54;92.93;100266.63;5113508;28;20023;-70
2023/12/10 04:07:55;;;;;;;19.63;10.18;;;;;;;4.60;91.75;100263.22;5112187;28;20035;-70
2023/12/10 04:10:21;;;;;;;16.20;8.48;;;;;;;4.19;93.03;100231.44;5111680;28;20072;-70
2023/12/10 04:12:46;;;;;;;19.83;11.05;;;;;;;4.69;92.31;100259.53;5095130;28;20035;-70
2023/12/10 04:15:12;;;;;;;16.08;9.45;;;;;;;4.54;91.85;100261.28;5112942;28;20031;-70
2023/12/10 04:17:37;;;;;;;20.75;11.27;;;;;;;4.43;91.94;100263.28;5111704;28;20494;-70
2023/12/10 04:20:03;;;;;;;18.85;10.77;;;;;;;4.79;91.10;100252.16;5112751;28;20104;-70
2023/12/10 04:22:28;;;;;;;17.30;9.77;;;;;;;4.39;92.30;100263.81;5094189;28;20070;-70
2023/12/10 04:24:54;;;;;;;17.85;10.75;;;;;;;4.48;93.63;100260.97;5111484;28;20576;-70
2023/12/10 04:27:19;;;;;;;20.27;10.60;;;;;;;4.35;93.63;100258.00;5112916;28;20533;-71
2023/12/10 04:29:46;;;;;;;16.02;10.10;;;;;;;4.83;90.93;100250.78;5111284;28;20080;-70
2023/12/10 04:32:11;;;;;;;19.85;10.00;;;;;;;4.54;91.98;100248.78;5112201;27;20043;-70
2023/12/10 04:34:36;;;;;;;21.70;10.98;;;;;;;4.80;90.88;100237.84;5111228;28;20027;-70
2023/12/10 04:37:02;;;;;;;19.90;9.40;;;;;;;4.61;91.33;100248.91;5112357;28;20031;-70
2023/12/10 04:39:27;;;;;;;17.42;10.02;;;;;;;4.50;90.97;100219.97;5112518;28;20502;-70
2023/12/10 04:41:53;;;;;;;17.17;10.45;;;;;;;4.50;90.78;100217.31;5112430;28;20039;-71
2023/12/10 04:44:18;;;;;;;17.35;10.02;;;;;;;5.05;90.44;100243.81;5111709;28;20838;-71
2023/12/10 04:46:44;;;;;;;14.23;8.27;;;;;;;4.24;92.18;100247.75;5111298;28;20452;-71
2023/12/10 04:49:09;;;;;;;15.93;9.38;;;;;;;4.62;91.16;100242.59;5112165;28;20043;-70
2023/12/10 04:51:35;;;;;;;18.25;10.15;;;;;;;5.03;88.57;100239.66;5112495;28;20124;-71
2023/12/10 04:54:00;;;;;;;20.58;10.68;;;;;;;5.04;89.52;100247.50;5110413;28;20072;-70
2023/12/10 04:56:27;;;;;;;16.67;8.98;;;;;;;4.37;90.81;100241.84;5112405;28;20114;-71
2023/12/10 04:58:52;;;;;;;20.70;10.77;;;;;;;4.74;90.10;100248.38;5110620;28;20024;-71
2023/12/10 05:01:17;;;;;;;16.92;9.05;;;;;;;4.59;90.46;100253.59;5093322;28;20395;-71
2023/12/10 05:03:43;;;;;;;19.30;10.02;;;;;;;4.68;90.49;100265.88;5093952;28;20115;-70
2023/12/10 05:06:08;;;;;;;17.92;9.80;;;;;;;4.71;90.74;100261.03;5093835;28;20440;-71
2023/12/10 05:08:34;;;;;;;17.48;10.23;;;;;;;4.46;91.40;100256.78;5111520;28;20059;-71
2023/12/10 05:10:59;;;;;;;19.23;9.95;;;;;;;4.42;91.26;100258.16;5110364;28;20482;-71
2023/12/10 05:13:25;;;;;;;17.50;9.38;;;;;;;4.42;91.31;100255.50;5092937;28;20066;-71
2023/12/10 05:15:51;;;;;;;18.67;10.55;;;;;;;4.68;92.26;100255.22;5110339;28;20098;-70
2023/12/10 05:18:16;;;;;;;19.42;11.70;;;;;;;4.84;90.03;100260.47;5111653;28;20483;-71
2023/12/10 05:20:42;;;;;;;19.60;10.50;;;;;;;4.69;90.77;100252.34;5111080;28;20043;-71
2023/12/10 05:23:07;;;;;;;17.50;9.27;;;;;;;4.67;90.91;100261.56;5110958;28;20031;-71
2023/12/10 05:25:32;;;;;;;19.60;10.43;;;;;;;4.59;91.09;100259.75;5111686;28;20033;-70
2023/12/10 05:27:58;;;;;;;22.20;10.15;;;;;;;4.55;91.07;100268.25;5111209;28;20035;-70
2023/12/10 05:30:24;;;;;;;20.40;10.90;;;;;;;4.74;90.11;100259.03;5093599;28;20027;-71
2023/12/10 05:32:49;;;;;;;21.33;10.32;;;;;;;4.32;91.75;100247.69;5093438;28;20478;-71
2023/12/10 05:35:14;;;;;;;20.60;11.60;;;;;;;4.85;90.77;100238.13;5110698;28;20050;-71
2023/12/10 05:37:40;;;;;;;21.40;11.57;;;;;;;5.01;89.74;100263.84;5094359;28;20466;-70
2023/12/10 05:40:06;;;;;;;21.08;11.32;;;;;;;4.86;88.49;100260.28;5110984;28;20032;-71
2023/12/10 05:42:31;;;;;;;23.67;11.30;;;;;;;4.65;90.80;100261.72;5110501;28;20042;-71
2023/12/10 05:44:58;;;;;;;18.67;9.65;;;;;;;4.54;90.70;100254.13;5111263;28;20040;-71
2023/12/10 05:47:24;;;;;;;21.25;11.32;;;;;;;4.59;91.46;100265.06;5110488;28;20039;-71
2023/12/10 05:49:50;;;;;;;20.45;11.20;;;;;;;4.82;91.34;100266.97;5110961;28;20405;-71
2023/12/10 05:52:16;;;;;;;20.88;10.23;;;;;;;4.94;89.62;100255.72;5093589;28;20035;-71
2023/12/10 05:54:41;;;;;;;23.35;11.60;;;;;;;5.09;89.73;100277.13;5096883;28;20362;-71
2023/12/10 05:57:06;;;;;;;21.33;11.38;;;;;;;5.19;87.33;100267.06;5053531;28;20032;-71
2023/12/10 05:59:32;;;;;;;21.40;11.13;;;;;;;4.87;89.62;100267.28;5090641;28;20502;-71
2023/12/10 06:01:57;;;;;;;17.50;9.35;;;;;;;4.89;88.21;100267.91;5072460;28;20093;-71
2023/12/10 06:04:23;;;;;;;23.17;12.23;;;;;;;5.03;89.73;100274.34;5090377;28;20040;-71
2023/12/10 06:06:48;;;;;;;19.33;10.68;;;;;;;4.82;90.64;100281.13;5090303;28;20391;-71
2023/12/10 06:09:14;;;;;;;21.80;11.73;;;;;;;5.10;88.52;100286.81;5089504;28;20471;-70
2023/12/10 06:11:40;;;;;;;22.60;11.93;;;;;;;5.41;87.12;100284.09;5090685;28;20031;-71
2023/12/10 06:14:06;;;;;;;21.60;10.73;;;;;;;5.48;86.74;100284.19;5088650;28;20020;-70
2023/12/10 06:16:31;;;;;;;21.35;11.52;;;;;;;5.31;86.95;100293.34;5090461;28;20115;-71
2023/12/10 06:18:57;;;;;;;22.42;12.18;;;;;;;5.05;89.17;100299.81;5090281;28;20117;-69
2023/12/10 06:21:22;;;;;;;24.02;11.35;;;;;;;5.05;89.12;100294.50;5090642;28;20036;-71
2023/12/10 06:23:48;;;;;;;22.08;11.02;;;;;;;4.93;88.90;100303.88;5089637;28;20130;-70
2023/12/10 06:26:13;;;;;;;21.75;11.75;;;;;;;5.09;89.21;100293.13;5089133;28;20030;-69
2023/12/10 06:28:38;;;;;;;17.90;9.48;;;;;;;4.79;89.57;100302.78;5090624;28;20032;-70
2023/12/10 06:31:04;;;;;;;17.35;8.38;;;;;;;4.80;89.98;100292.94;5098172;28;20115;-72
2023/12/10 06:33:29;;;;;;;21.25;10.90;;;;;;;5.14;89.39;100298.78;5093202;28;20495;-71
2023/12/10 06:35:55;;;;;;;22.10;11.43;;;;;;;5.15;88.20;100292.44;5074134;28;20028;-71
2023/12/10 06:38:20;;;;;;;22.95;11.00;;;;;;;5.19;88.95;100309.72;5091946;28;20027;-70
2023/12/10 06:40:46;;;;;;;22.27;11.30;;;;;;;5.09;88.95;100293.13;5108921;28;20024;-71
2023/12/10 06:43:11;;;;;;;23.50;11.73;;;;;;;5.15;88.61;100313.75;5111003;28;20031;-72
2023/12/10 06:45:37;;;;;;;22.17;10.52;;;;;;;5.27;86.91;100313.38;5101280;28;20028;-73
2023/12/10 06:48:03;;;;;;;23.27;11.80;;;;;;;5.62;86.66;100317.28;5085009;28;20028;-70
2023/12/10 06:50:30;;;;;;;22.15;10.70;;;;;;;5.37;86.57;100319.31;5070391;28;20026;-70
2023/12/10 06:52:56;;;;;;;23.13;11.90;;;;;;;5.26;87.24;100325.03;5071414;28;20426;-71
2023/12/10 06:55:21;;;;;;;22.63;11.52;;;;;;;5.53;87.24;100335.22;5069841;28;20082;-70
2023/12/10 06:57:46;;;;;;;23.65;12.23;;;;;;;5.77;85.11;100333.34;5068886;28;20488;-70
2023/12/10 07:00:13;;;;;;;25.33;12.18;;;;;;;5.23;88.10;100342.25;5069781;28;20044;-70
2023/12/10 07:02:39;;;;;;;24.15;12.57;;;;;;;5.72;86.29;100349.06;5068898;28;20032;-71
2023/12/10 07:05:05;;;;;;;20.75;11.15;;;;;;;5.54;85.78;100352.88;5068696;28;20098;-71
2023/12/10 07:07:31;;;;;;;22.02;11.73;;;;;;;5.84;85.27;100359.16;5071362;28;20053;-69
2023/12/10 07:09:57;;;;;;;21.90;11.40;;;;;;;5.77;85.38;100360.06;5075378;28;20031;-72
2023/12/10 07:12:22;;;;;;;21.15;10.77;;;;;;;5.66;85.74;100355.94;5092051;28;20036;-71
2023/12/10 07:14:48;;;;;;;20.33;10.98;;;;;;;5.63;86.17;100353.66;5059662;28;20113;-73
2023/12/10 07:17:14;;;;;;;18.88;9.98;;;;;;;5.46;85.67;100350.25;5055305;28;20035;-71
2023/12/10 07:19:39;;;;;;;25.08;12.07;;;;;;;5.42;86.96;100357.78;5072713;28;20032;-71
2023/12/10 07:22:04;;;;;;;21.88;11.60;;;;;;;5.34;87.56;100368.50;5070829;28;20567;-71
2023/12/10 07:24:31;;;;;;;17.98;8.18;;;;;;;5.35;86.55;100348.81;5071779;28;20035;-71
2023/12/10 07:26:57;;;;;;;21.05;10.75;;;;;;;5.50;87.28;100369.44;5070826;28;20036;-71
2023/12/10 07:29:22;;;;;;;19.25;10.60;;;;;;;5.68;85.61;100371.78;5071114;28;20495;-71
2023/12/10 07:31:47;;;;;;;17.85;10.40;;;;;;;5.38;87.01;100375.16;5087151;28;20434;-72
2023/12/10 07:34:13;;;;;;;18.98;10.95;;;;;;;5.36;88.37;100376.31;5072545;28;20029;-71
2023/12/10 07:36:38;;;;;;;20.45;9.88;;;;;;;5.15;88.51;100360.94;5071751;28;20044;-71
2023/12/10 07:39:03;;;;;;;16.35;8.27;;;;;;;5.17;89.22;100373.09;5071537;28;20483;-71
2023/12/10 07:41:29;;;;;;;18.35;9.82;;;;;;;5.36;89.11;100366.50;5078122;28;20122;-71
2023/12/10 07:43:54;;;;;;;20.15;9.98;;;;;;;5.18;88.63;100355.25;5093089;28;20028;-71
2023/12/10 07:46:20;;;;;;;17.90;9.90;;;;;;;5.40;88.12;100351.81;5091784;28;20134;-70
2023/12/10 07:48:45;;;;;;;16.58;9.32;;;;;;;5.73;87.44;100366.75;5092721;28;20536;-71
2023/12/10 07:51:13;;;;;;;16.88;9.35;;;;;;;5.75;86.94;100370.06;5091043;28;20077;-70
2023/12/10 07:53:41;;;;;;;16.75;9.20;;;;;;;5.17;89.18;100373.09;5074680;28;20031;-70
2023/12/10 07:56:08;;;;;;;15.82;8.65;;;;;;;5.21;89.75;100362.09;5092785;28;20711;-70
2023/12/10 07:58:33;;;;;;;14.25;8.15;;;;;;;5.17;89.69;100351.78;5092852;28;20032;-72
2023/12/10 08:01:00;;;;;;;15.07;8.52;;;;;;;5.68;88.62;100369.13;5092810;28;20418;-72
2023/12/10 08:03:25;;;;;;;15.30;8.55;;;;;;;5.62;87.40;100355.47;5074690;28;20032;-73
2023/12/10 08:05:50;;;;;;;17.00;7.95;;;;;;;5.27;89.89;100364.88;5091392;28;20548;-72
2023/12/10 08:08:16;;;;;;;15.77;8.07;;;;;;;5.27;90.14;100358.72;5091311;28;20028;-72
2023/12/10 08:10:41;;;;;;;14.45;7.90;;;;;;;5.61;88.87;100369.84;5092100;28;20376;-72
2023/12/10 08:13:07;;;;;;;17.50;8.20;;;;;;;5.45;88.73;100356.59;5090809;28;20399;-72
2023/12/10 08:15:32;;;;;;;13.57;7.53;;;;;;;5.74;87.53;100355.91;5090720;28;20028;-72
2023/12/10 08:17:58;;;;;;;15.80;9.68;;;;;;;5.68;87.50;100356.59;5090155;28;20024;-72
2023/12/10 08:20:23;;;;;;;17.17;7.50;;;;;;;5.46;88.23;100366.25;5091071;28;20055;-72
2023/12/10 08:22:48;;;;;;;13.43;7.90;;;;;;;5.33;89.74;100355.31;5090848;28;20046;-72
2023/12/10 08:25:14;;;;;;;14.25;7.75;;;;;;;5.75;88.17;100362.88;5092714;28;20471;-72
2023/12/10 08:27:39;;;;;;;15.60;8.38;;;;;;;5.63;88.53;100351.81;5074577;28;20111;-72
2023/12/10 08:30:05;;;;;;;16.63;9.25;;;;;;;5.61;88.68;100361.81;5091216;28;20410;-72
2023/12/10 08:32:31;;;;;;;23.10;11.32;;;;;;;5.82;87.89;100360.34;5091630;28;20406;-72
2023/12/10 08:34:56;;;;;;;24.85;11.35;;;;;;;5.73;87.59;100361.41;5090903;28;20123;-71
2023/12/10 08:37:22;;;;;;;46.33;17.83;;;;;;;5.46;88.43;100344.91;5092374;28;20062;-72
2023/12/10 08:39:50;;;;;;;39.97;15.57;;;;;;;6.00;86.75;100368.09;5090511;28;20089;-72
2023/12/10 08:42:16;;;;;;;25.35;10.82;;;;;;;5.71;88.61;100371.44;5091106;28;20032;-72
2023/12/10 08:44:41;;;;;;;34.38;15.80;;;;;;;5.79;88.07;100358.84;5091786;28;20479;-72
2023/12/10 08:47:07;;;;;;;38.22;14.23;;;;;;;5.51;89.03;100366.56;5091663;28;20031;-72
2023/12/10 08:49:32;;;;;;;14.02;7.93;;;;;;;5.64;89.01;100380.16;5090832;28;20390;-71
2023/12/10 08:51:58;;;;;;;14.82;9.25;;;;;;;5.70;88.31;100389.31;5090283;28;20061;-72
2023/12/10 08:54:23;;;;;;;12.68;7.53;;;;;;;5.49;89.22;100373.91;5090468;28;20073;-72
2023/12/10 08:56:49;;;;;;;11.32;6.63;;;;;;;5.53;89.96;100382.38;5091841;28;20110;-72
2023/12/10 08:59:14;;;;;;;14.32;8.48;;;;;;;6.04;87.00;100366.69;5089547;28;20131;-73
2023/12/10 09:01:40;;;;;;;15.80;11.07;;;;;;;6.08;86.58;100394.72;5089973;28;20437;-71
2023/12/10 09:04:05;;;;;;;9.25;6.07;;;;;;;5.39;89.71;100392.81;5073180;28;20024;-72
2023/12/10 09:06:31;;;;;;;11.93;8.15;;;;;;;5.81;88.50;100410.25;5073513;28;20028;-72
2023/12/10 09:08:57;;;;;;;8.93;5.60;;;;;;;6.18;87.01;100411.31;5089944;28;20023;-72
2023/12/10 09:11:22;;;;;;;16.27;7.00;;;;;;;5.95;87.38;100416.66;5089938;28;20085;-72
2023/12/10 09:13:48;;;;;;;8.90;5.32;;;;;;;5.49;89.52;100400.59;5091537;28;20024;-72
2023/12/10 09:16:16;;;;;;;22.58;16.73;;;;;;;5.59;87.55;100345.16;5091736;28;20030;-72
2023/12/10 09:18:41;;;;;;;10.43;6.38;;;;;;;6.11;86.80;100413.88;5091820;28;20036;-72
2023/12/10 09:21:07;;;;;;;9.43;6.47;;;;;;;6.28;85.87;100424.44;5090427;28;20031;-72
2023/12/10 09:23:34;;;;;;;8.60;5.55;;;;;;;6.30;85.10;100423.25;5091249;28;20028;-74
2023/12/10 09:26:00;;;;;;;8.20;5.30;;;;;;;6.09;86.62;100425.75;5091310;28;20030;-73
2023/12/10 09:28:25;;;;;;;9.35;4.80;;;;;;;6.22;86.86;100433.97;5090108;28;20032;-71
2023/12/10 09:30:50;;;;;;;8.13;5.50;;;;;;;6.33;85.80;100432.75;5072184;28;20379;-74
2023/12/10 09:33:16;;;;;;;12.43;9.88;;;;;;;6.57;84.01;100442.38;5091109;28;20761;-74
2023/12/10 09:35:41;;;;;;;9.77;5.68;;;;;;;6.67;83.25;100436.75;5074856;28;20036;-71
2023/12/10 09:38:07;;;;;;;6.25;4.68;;;;;;;6.14;85.15;100441.25;5091005;28;20070;-72
2023/12/10 09:40:33;;;;;;;8.93;5.75;;;;;;;6.09;85.33;100442.63;5092442;28;20038;-73
2023/12/10 09:42:58;;;;;;;6.97;4.07;;;;;;;5.96;86.73;100449.53;5088613;28;20055;-71
2023/12/10 10:12:30;;;;;;;4.65;3.40;;;;;;;5.82;90.75;100457.28;5127224;27;20418;-73
2023/12/10 10:14:59;;;;;;;4.95;3.88;;;;;;;6.18;89.18;100446.03;5111565;27;20093;-73
2023/12/10 10:17:29;;;;;;;5.60;3.35;;;;;;;6.07;89.35;100447.31;5118959;28;20093;-73
2023/12/10 10:19:55;;;;;;;6.32;3.80;;;;;;;5.85;89.42;100442.75;5119549;27;20032;-71
2023/12/10 10:22:23;;;;;;;7.25;4.25;;;;;;;5.83;90.85;100458.97;5098141;28;20047;-73
2023/12/10 10:24:48;;;;;;;9.38;6.43;;;;;;;5.90;91.06;100456.41;5110624;28;20032;-72
2023/12/10 10:27:13;;;;;;;39.53;17.38;;;;;;;5.93;90.69;100458.75;5110353;28;20085;-73
2023/12/10 10:29:40;;;;;;;15.20;7.95;;;;;;;5.98;89.25;100463.56;5110354;27;20032;-72
2023/12/10 10:32:08;;;;;;;8.90;5.47;;;;;;;5.87;88.90;100435.41;5115606;27;20043;-74
2023/12/10 10:34:34;;;;;;;14.95;7.28;;;;;;;5.88;88.94;100437.06;5099967;28;20035;-73
2023/12/10 10:36:59;;;;;;;15.77;6.78;;;;;;;6.08;89.96;100461.47;5106330;28;20023;-73
2023/12/10 10:39:26;;;;;;;8.05;4.82;;;;;;;5.75;91.62;100472.34;5089212;28;20115;-72
2023/12/10 10:42:04;;;;;;;8.70;6.55;;;;;;;6.01;90.76;100464.03;5125226;28;20023;-73
2023/12/10 10:44:31;;;;;;;6.22;3.75;;;;;;;5.97;90.32;100460.06;5113192;28;20028;-73
2023/12/10 10:46:58;;;;;;;47.00;25.33;;;;;;;5.63;90.72;100423.06;5124303;28;20027;-73
2023/12/10 10:49:24;;;;;;;8.27;4.78;;;;;;;5.92;89.71;100464.22;5113297;28;20057;-74
2023/12/10 10:51:50;;;;;;;5.55;4.00;;;;;;;5.70;91.27;100464.06;5113828;28;20016;-73
2023/12/10 10:54:15;;;;;;;6.57;4.30;;;;;;;5.73;90.74;100450.34;5107398;28;20032;-73
2023/12/10 10:56:41;;;;;;;5.85;4.30;;;;;;;5.92;90.90;100454.38;5111164;27;20027;-73
2023/12/10 11:33:15;;;;;;;7.43;4.72;;;;;;;2.37;100.00;100453.75;5104908;27;20394;-72
2023/12/10 11:39:15;;;;;;;7.93;4.60;;;;;;;2.23;100.00;100425.94;5102296;22;20137;-73
2023/12/10 11:41:42;;;;;;;7.65;5.10;;;;;;;2.28;100.00;100433.44;5073410;28;20088;-73
2023/12/10 11:44:09;;;;;;;6.90;4.90;;;;;;;2.49;100.00;100455.19;5076882;28;20031;-70
2023/12/10 11:46:36;;;;;;;7.30;4.50;;;;;;;2.55;100.00;100451.03;5079299;28;20548;-72
2023/12/10 11:49:01;;;;;;;7.15;4.82;;;;;;;2.51;100.00;100441.72;5099871;28;20028;-73
2023/12/10 11:51:27;;;;;;;7.22;4.78;;;;;;;2.49;100.00;100443.72;5081838;28;20115;-69
2023/12/10 11:53:54;;;;;;;9.38;5.28;;;;;;;2.55;100.00;100448.38;5079060;28;20507;-69
2023/12/10 11:56:19;;;;;;;6.95;4.63;;;;;;;2.52;100.00;100435.44;5093978;28;20024;-68
2023/12/10 11:58:45;;;;;;;9.18;5.57;;;;;;;2.54;100.00;100438.75;5094562;28;20098;-68
2023/12/10 12:01:10;;;;;;;9.07;5.43;;;;;;;2.53;100.00;100431.78;5080830;28;20077;-69
2023/12/10 12:03:36;;;;;;;9.48;5.78;;;;;;;2.58;100.00;100437.44;5085551;28;20063;-70
2023/12/10 12:06:04;;;;;;;9.73;6.28;;;;;;;2.56;100.00;100434.13;5102742;28;20034;-70
2023/12/10 12:08:29;;;;;;;8.40;5.68;;;;;;;2.54;100.00;100433.44;5098313;28;20112;-68
2023/12/10 12:10:57;;;;;;;7.75;5.05;;;;;;;2.45;100.00;100426.41;5062615;28;20044;-74
2023/12/10 12:13:22;;;;;;;9.10;5.68;;;;;;;2.57;100.00;100443.75;5045820;28;20036;-74
2023/12/10 12:15:49;;;;;;;8.05;4.70;;;;;;;2.62;100.00;100440.66;5094449;28;20115;-69
2023/12/10 12:18:15;;;;;;;9.35;5.82;;;;;;;2.55;100.00;100440.41;5074196;28;20028;-69
2023/12/10 12:20:41;;;;;;;8.90;5.20;;;;;;;2.45;100.00;100407.81;5096106;28;20057;-70